Time;durP1;ratioP1;P1;durP2;ratioP2;P2;SDS_P1;SDS_P2;PMS_P1;PMS_P2;Temp;Humidity;BMP_temperature;BMP_pressure;BME280_temperature;BME280_humidity;BME280_pressure;Samples;Min_cycle;Max_cycle;Signal;HPM_P1;HPM_P2
2023/12/07 00:03:56;;;;;;;0.95;0.38;;;;;;;16.94;91.70;101922.50;10463142;28;20072;-81
2023/12/07 00:09:00;;;;;;;0.10;0.10;;;;;;;15.45;91.52;101917.00;10443362;28;20041;-80
2023/12/07 00:14:02;;;;;;;0.00;0.00;;;;;;;16.74;89.82;101915.19;10439517;28;20445;-80
2023/12/07 00:19:03;;;;;;;0.13;0.10;;;;;;;17.86;87.12;101922.00;10431198;28;20045;-80
2023/12/07 00:24:05;;;;;;;0.60;0.30;;;;;;;16.98;87.39;101918.22;10438067;28;20040;-81
2023/12/07 00:29:07;;;;;;;0.17;0.17;;;;;;;15.95;89.55;101923.28;10448596;28;20048;-80
2023/12/07 00:34:09;;;;;;;0.00;0.00;;;;;;;15.02;92.76;101918.63;10446026;28;20072;-80
2023/12/07 00:39:13;;;;;;;0.10;0.10;;;;;;;15.57;91.73;101918.13;10453630;28;20049;-80
2023/12/07 00:44:15;;;;;;;0.00;0.00;;;;;;;15.20;92.22;101921.69;10439154;28;20049;-80
2023/12/07 00:49:16;;;;;;;3.35;0.60;;;;;;;14.97;92.86;101909.88;10445805;28;20068;-80
2023/12/07 00:54:19;;;;;;;0.13;0.13;;;;;;;16.11;89.34;101906.25;10442087;28;20045;-80
2023/12/07 00:59:20;;;;;;;1.20;0.30;;;;;;;15.18;87.96;101925.94;10433541;28;20041;-80
2023/12/07 01:04:22;;;;;;;0.47;0.47;;;;;;;14.38;90.83;101923.94;10425830;28;20095;-80
2023/12/07 01:09:24;;;;;;;0.35;0.35;;;;;;;16.61;87.80;101928.84;10440948;28;20048;-80
2023/12/07 01:14:26;;;;;;;0.00;0.00;;;;;;;16.68;88.22;101929.84;10447482;28;20079;-80
2023/12/07 01:19:28;;;;;;;0.25;0.25;;;;;;;16.88;87.16;101933.63;10443145;28;20075;-80
2023/12/07 01:24:30;;;;;;;0.20;0.20;;;;;;;16.06;88.54;101934.75;10443669;28;20041;-80
2023/12/07 01:29:32;;;;;;;0.00;0.00;;;;;;;15.70;90.40;101930.53;10438790;28;20586;-80
2023/12/07 01:34:33;;;;;;;0.00;0.00;;;;;;;16.97;87.76;101927.72;10450475;28;20492;-80
2023/12/07 01:39:35;;;;;;;0.35;0.35;;;;;;;16.78;86.57;101926.53;10453331;28;20439;-81
2023/12/07 01:44:38;;;;;;;0.00;0.00;;;;;;;16.27;86.05;101934.31;10450657;28;20036;-80
2023/12/07 01:49:40;;;;;;;0.00;0.00;;;;;;;15.57;87.71;101938.91;10451135;28;20045;-80
2023/12/07 01:54:42;;;;;;;0.22;0.20;;;;;;;15.46;88.05;101934.34;10440725;28;20047;-80
2023/12/07 01:59:44;;;;;;;0.00;0.00;;;;;;;15.35;87.20;101946.25;10438693;28;20052;-80
2023/12/07 02:04:45;;;;;;;0.98;0.93;;;;;;;14.35;88.38;101954.94;10441780;28;20064;-80
2023/12/07 02:09:48;;;;;;;0.00;0.00;;;;;;;16.02;85.27;101959.81;10447527;28;20376;-81
2023/12/07 02:14:53;;;;;;;0.00;0.00;;;;;;;16.98;84.03;101949.44;10441064;28;20072;-80
2023/12/07 02:20:10;;;;;;;0.00;0.00;;;;;;;16.36;83.12;101948.34;10451801;28;20511;-80
2023/12/07 02:25:14;;;;;;;0.10;0.10;;;;;;;17.23;81.80;101950.69;10457683;28;20045;-80
2023/12/07 02:30:16;;;;;;;0.20;0.20;;;;;;;16.81;82.46;101957.81;10460612;28;20095;-80
2023/12/07 02:35:18;;;;;;;0.30;0.30;;;;;;;16.07;82.96;101957.31;10459429;28;20052;-80
2023/12/07 02:40:25;;;;;;;0.00;0.00;;;;;;;15.81;82.77;101956.75;10435142;28;20049;-79
2023/12/07 02:45:27;;;;;;;0.00;0.00;;;;;;;16.36;83.52;101954.41;10445134;28;20045;-80
2023/12/07 02:50:29;;;;;;;0.15;0.15;;;;;;;15.37;84.64;101949.75;10462885;28;20052;-79
2023/12/07 02:55:31;;;;;;;0.17;0.17;;;;;;;13.46;87.19;101946.38;10458369;28;20045;-80
2023/12/07 03:00:33;;;;;;;0.63;0.45;;;;;;;11.79;90.83;101958.75;10462766;28;20548;-79
2023/12/07 03:05:35;;;;;;;0.20;0.20;;;;;;;12.18;91.19;101955.88;10472437;28;20140;-80
2023/12/07 03:10:37;;;;;;;0.00;0.00;;;;;;;15.04;85.26;101933.41;10466127;28;20075;-80
2023/12/07 03:15:39;;;;;;;0.03;0.03;;;;;;;14.22;85.54;101944.25;10460019;28;20040;-80
2023/12/07 03:20:41;;;;;;;0.30;0.20;;;;;;;14.36;85.97;101946.34;10434864;28;20408;-80
2023/12/07 03:25:43;;;;;;;0.13;0.13;;;;;;;14.14;85.08;101945.75;10461612;28;20086;-80
2023/12/07 03:30:45;;;;;;;0.10;0.10;;;;;;;15.82;84.31;101945.50;10441872;28;20045;-81
2023/12/07 03:35:46;;;;;;;0.68;0.55;;;;;;;14.55;83.03;101958.97;10462956;28;20041;-80
2023/12/07 03:40:49;;;;;;;0.10;0.10;;;;;;;14.74;84.46;101947.38;10431264;28;20041;-80
2023/12/07 03:45:52;;;;;;;0.10;0.10;;;;;;;14.60;83.43;101952.19;10459929;28;20056;-81
2023/12/07 03:50:53;;;;;;;0.00;0.00;;;;;;;14.36;84.99;101967.09;10448521;28;20063;-81
2023/12/07 03:55:55;;;;;;;0.03;0.03;;;;;;;14.98;83.92;101954.03;10444050;28;20120;-81
2023/12/07 04:00:57;;;;;;;0.03;0.03;;;;;;;13.41;87.33;101971.25;10453850;28;20052;-81
2023/12/07 04:05:59;;;;;;;0.00;0.00;;;;;;;14.32;86.89;101967.84;10457608;28;20037;-81
2023/12/07 04:11:01;;;;;;;0.10;0.10;;;;;;;13.80;87.20;101960.34;10441138;28;20060;-81
2023/12/07 04:16:03;;;;;;;0.10;0.10;;;;;;;14.43;86.30;101971.59;10450671;28;20105;-81
2023/12/07 04:21:05;;;;;;;0.38;0.38;;;;;;;14.21;85.55;101976.19;10445357;28;20051;-81
2023/12/07 04:26:07;;;;;;;0.55;0.55;;;;;;;14.21;86.03;101981.38;10456580;28;20450;-81
2023/12/07 04:31:09;;;;;;;0.32;0.32;;;;;;;13.53;88.30;101976.78;10455970;28;20047;-81
2023/12/07 04:36:12;;;;;;;0.38;0.38;;;;;;;14.23;88.39;101974.53;10455275;28;20049;-80
2023/12/07 04:41:13;;;;;;;0.40;0.30;;;;;;;14.12;86.99;101978.50;10438334;28;20135;-80
2023/12/07 04:46:15;;;;;;;4.78;0.75;;;;;;;14.41;87.31;101979.34;10430866;28;20075;-80
2023/12/07 04:51:18;;;;;;;0.10;0.10;;;;;;;14.71;84.72;101974.94;10432446;28;20095;-81
2023/12/07 04:56:20;;;;;;;0.32;0.10;;;;;;;16.15;84.53;101971.34;10454375;28;20044;-81
2023/12/07 05:01:22;;;;;;;0.03;0.03;;;;;;;14.12;87.71;101988.88;10431580;28;20058;-81
2023/12/07 05:06:25;;;;;;;0.30;0.30;;;;;;;14.30;88.99;101985.06;10456840;28;20044;-81
2023/12/07 05:11:26;;;;;;;0.32;0.32;;;;;;;15.49;86.02;101978.59;10454478;28;20132;-80
2023/12/07 05:16:28;;;;;;;0.10;0.10;;;;;;;13.98;87.54;101985.00;10442393;28;20116;-81
2023/12/07 05:21:30;;;;;;;0.20;0.20;;;;;;;13.20;90.17;101987.81;10448502;28;20107;-81
2023/12/07 05:26:32;;;;;;;0.05;0.05;;;;;;;12.42;95.52;101984.34;10438590;28;20045;-81
2023/12/07 05:31:34;;;;;;;0.13;0.08;;;;;;;13.33;91.69;101978.72;10422934;28;20056;-81
2023/12/07 05:36:36;;;;;;;0.45;0.45;;;;;;;13.35;91.65;101981.38;10432512;28;20098;-81
2023/12/07 05:41:38;;;;;;;0.00;0.00;;;;;;;12.66;93.18;101973.97;10431369;28;20080;-82
2023/12/07 05:46:43;;;;;;;0.45;0.40;;;;;;;13.90;92.15;101977.91;10446191;28;20128;-81
2023/12/07 05:51:46;;;;;;;0.80;0.28;;;;;;;11.82;95.97;101992.41;10438788;28;20049;-81
2023/12/07 05:56:48;;;;;;;0.25;0.20;;;;;;;13.07;93.10;101981.34;10437206;28;20120;-81
2023/12/07 06:01:51;;;;;;;0.00;0.00;;;;;;;13.67;91.31;101968.56;10451840;28;20133;-82
2023/12/07 06:06:53;;;;;;;0.30;0.30;;;;;;;12.79;92.71;101969.19;10453625;28;20476;-81
2023/12/07 06:11:55;;;;;;;1.08;0.82;;;;;;;12.94;94.80;101979.19;10436275;28;20491;-80
2023/12/07 06:16:59;;;;;;;0.20;0.20;;;;;;;13.18;92.42;101974.81;10449612;28;20091;-81
2023/12/07 06:22:00;;;;;;;0.52;0.52;;;;;;;12.02;96.82;101985.44;10429496;28;20045;-81
2023/12/07 06:27:02;;;;;;;1.23;0.90;;;;;;;13.42;94.50;101967.81;10446628;28;20052;-81
2023/12/07 06:32:04;;;;;;;0.50;0.50;;;;;;;12.80;95.60;101970.97;10439329;28;20720;-81
2023/12/07 06:37:06;;;;;;;0.50;0.50;;;;;;;12.82;96.07;101977.06;10439435;28;20048;-81
2023/12/07 06:42:08;;;;;;;0.40;0.40;;;;;;;12.46;100.00;101981.00;10442256;28;20504;-81
2023/12/07 06:47:10;;;;;;;0.82;0.65;;;;;;;12.96;100.00;101986.19;10432779;28;20530;-80
2023/12/07 06:52:12;;;;;;;0.73;0.73;;;;;;;12.73;98.61;101989.69;10443450;28;20061;-81
2023/12/07 06:57:14;;;;;;;1.27;0.93;;;;;;;12.92;96.63;101976.53;10437816;28;20045;-81
2023/12/07 07:02:15;;;;;;;0.05;0.05;;;;;;;13.93;95.60;101982.28;10460478;28;20119;-81
2023/12/07 07:07:17;;;;;;;0.32;0.25;;;;;;;12.87;99.19;101988.44;10450731;28;20468;-81
2023/12/07 07:12:19;;;;;;;0.30;0.30;;;;;;;11.35;99.46;101998.38;10460562;28;20053;-81
2023/12/07 07:17:21;;;;;;;0.77;0.73;;;;;;;11.54;100.00;101996.50;10434095;28;20041;-81
2023/12/07 07:22:23;;;;;;;0.20;0.20;;;;;;;12.28;99.61;101981.25;10454734;28;20049;-80
2023/12/07 07:27:25;;;;;;;0.77;0.47;;;;;;;12.46;98.99;101980.16;10436996;28;20071;-81
2023/12/07 07:32:27;;;;;;;0.22;0.22;;;;;;;12.22;100.00;101983.59;10443750;28;20045;-81
2023/12/07 07:37:29;;;;;;;1.38;1.27;;;;;;;13.06;98.61;101981.31;10430918;28;20041;-81
2023/12/07 07:42:31;;;;;;;0.22;0.22;;;;;;;13.42;97.27;101985.94;10446382;28;20056;-81
2023/12/07 07:47:33;;;;;;;0.10;0.10;;;;;;;14.42;94.63;101993.16;10466732;28;20122;-82
2023/12/07 07:52:35;;;;;;;0.35;0.35;;;;;;;13.14;99.06;101987.63;10445177;28;20048;-81
2023/12/07 07:57:37;;;;;;;0.52;0.52;;;;;;;14.22;95.67;101996.09;10447386;28;20131;-81
2023/12/07 08:02:39;;;;;;;0.52;0.52;;;;;;;12.51;98.45;102002.72;10440339;28;20041;-81
2023/12/07 08:07:41;;;;;;;0.45;0.45;;;;;;;12.32;99.24;102013.25;10442017;28;20071;-82
2023/12/07 08:12:43;;;;;;;0.30;0.15;;;;;;;11.78;100.00;102018.94;10443327;28;20118;-81
2023/12/07 08:17:45;;;;;;;0.68;0.68;;;;;;;11.42;99.89;102014.97;10424045;28;20141;-82
2023/12/07 08:22:46;;;;;;;2.10;1.73;;;;;;;12.60;99.75;102012.53;10442778;28;20041;-82
2023/12/07 08:27:48;;;;;;;1.30;1.20;;;;;;;13.11;98.72;102013.38;10430441;28;20128;-81
2023/12/07 08:32:50;;;;;;;0.45;0.45;;;;;;;12.80;99.93;102007.16;10437841;28;20460;-81
2023/12/07 08:37:52;;;;;;;0.32;0.30;;;;;;;12.23;99.17;102018.97;10440573;28;20052;-81
2023/12/07 08:42:54;;;;;;;0.93;0.85;;;;;;;14.12;95.69;102000.16;10458375;28;20531;-82
2023/12/07 08:47:56;;;;;;;0.25;0.25;;;;;;;12.89;95.61;102006.59;10439137;28;20419;-82
2023/12/07 08:52:58;;;;;;;2.33;0.40;;;;;;;13.41;94.72;102015.25;10422741;28;20040;-81
2023/12/07 08:58:06;;;;;;;0.93;0.82;;;;;;;12.84;96.24;102014.22;10445495;28;20033;-82
2023/12/07 09:03:07;;;;;;;0.10;0.10;;;;;;;14.02;95.45;102015.38;10455131;28;20037;-82
2023/12/07 09:08:09;;;;;;;3.25;1.73;;;;;;;13.35;94.75;102012.44;10462456;28;20043;-82
2023/12/07 09:13:11;;;;;;;0.63;0.63;;;;;;;13.15;96.92;102004.88;10441194;28;20073;-82
2023/12/07 09:18:13;;;;;;;1.27;0.30;;;;;;;12.28;98.19;102017.41;10429683;28;20059;-81
2023/12/07 09:23:15;;;;;;;0.10;0.10;;;;;;;11.94;99.16;102005.81;10440652;28;20057;-81
2023/12/07 09:28:17;;;;;;;0.98;0.85;;;;;;;11.79;100.00;101995.75;10430545;28;20492;-82
2023/12/07 09:33:19;;;;;;;2.00;1.20;;;;;;;12.95;100.00;101993.91;10422725;28;20053;-81
2023/12/07 09:38:22;;;;;;;1.80;1.08;;;;;;;13.67;97.39;101986.69;10436282;28;20427;-82
2023/12/07 09:43:24;;;;;;;0.20;0.20;;;;;;;13.70;97.12;101989.38;10444813;28;20427;-82
2023/12/07 09:48:26;;;;;;;1.02;1.02;;;;;;;12.88;99.68;101992.78;10450897;28;20090;-82
2023/12/07 09:53:29;;;;;;;0.85;0.85;;;;;;;13.41;100.00;101986.78;10437744;28;20480;-82
2023/12/07 09:58:31;;;;;;;1.05;1.00;;;;;;;12.98;99.14;101987.13;10428000;28;20047;-83
2023/12/07 10:03:44;;;;;;;0.65;0.30;;;;;;;12.72;100.00;101985.34;10451582;28;20098;-82
2023/12/07 10:08:46;;;;;;;2.40;1.35;;;;;;;12.34;100.00;101971.13;10423817;28;20037;-82
2023/12/07 10:13:49;;;;;;;1.25;0.82;;;;;;;14.06;97.87;101968.88;10456120;28;20527;-83
2023/12/07 10:18:52;;;;;;;0.52;0.50;;;;;;;12.89;99.96;101966.09;10438401;28;20435;-83
2023/12/07 10:23:53;;;;;;;0.20;0.20;;;;;;;12.73;100.00;101963.81;10437275;28;20052;-83
2023/12/07 10:28:55;;;;;;;0.85;0.82;;;;;;;13.40;100.00;101959.13;10437369;28;20045;-82
2023/12/07 10:33:59;;;;;;;0.20;0.20;;;;;;;13.26;100.00;101949.19;10458359;28;20055;-82
2023/12/07 10:39:06;;;;;;;0.90;0.38;;;;;;;13.70;100.00;101947.94;10438041;28;20029;-83
2023/12/07 10:44:17;;;;;;;0.10;0.10;;;;;;;12.95;100.00;101935.28;10439347;28;20122;-83
2023/12/07 10:49:21;;;;;;;0.10;0.10;;;;;;;12.98;100.00;101918.97;10461046;28;20045;-83
2023/12/07 10:55:02;;;;;;;0.00;0.00;;;;;;;13.77;100.00;101918.81;10442284;28;20488;-83
2023/12/07 11:00:07;;;;;;;0.38;0.38;;;;;;;13.36;100.00;101915.84;10443992;28;20056;-82
2023/12/07 11:05:09;;;;;;;0.38;0.38;;;;;;;13.25;100.00;101898.25;10466962;28;20072;-82
2023/12/07 11:10:19;;;;;;;0.77;0.77;;;;;;;13.68;98.57;101884.88;10449708;28;20049;-82
2023/12/07 11:15:21;;;;;;;;;;;;;;;14.94;98.90;101878.66;10427257;28;20056;-82
2023/12/07 11:20:40;;;;;;;0.32;0.13;;;;;;;13.52;100.00;101875.78;10450171;28;19921;-82
2023/12/07 11:25:43;;;;;;;0.47;0.47;;;;;;;14.09;99.05;101869.63;10421586;28;20048;-82
2023/12/07 11:30:46;;;;;;;1.25;1.20;;;;;;;14.02;99.25;101857.34;10460577;28;20051;-81
2023/12/07 11:35:59;;;;;;;2.58;0.90;;;;;;;14.91;99.86;101857.00;10461742;28;20476;-82
2023/12/07 11:41:02;;;;;;;2.08;1.17;;;;;;;13.99;100.00;101847.78;10468512;28;20041;-81
2023/12/07 11:46:04;;;;;;;3.28;0.93;;;;;;;14.57;99.79;101829.34;10419624;28;20064;-82
2023/12/07 11:51:07;;;;;;;1.08;1.00;;;;;;;14.43;99.93;101823.81;10433939;28;20063;-83
2023/12/07 11:56:11;;;;;;;1.33;0.55;;;;;;;14.44;100.00;101822.97;10441539;28;20071;-82
2023/12/07 12:01:12;;;;;;;1.15;1.13;;;;;;;14.72;99.09;101815.88;10456616;28;20049;-81
2023/12/07 12:06:14;;;;;;;4.47;1.75;;;;;;;15.13;100.00;101817.66;10438930;28;20659;-81
2023/12/07 12:11:16;;;;;;;1.95;1.83;;;;;;;15.68;99.63;101807.53;10426473;28;20560;-81
2023/12/07 12:16:18;;;;;;;0.70;0.70;;;;;;;15.46;98.10;101801.91;10443896;28;20063;-81
2023/12/07 12:21:20;;;;;;;0.68;0.68;;;;;;;16.04;98.85;101785.72;10456021;28;20045;-81
2023/12/07 12:26:22;;;;;;;1.08;0.98;;;;;;;16.33;98.49;101799.19;10464472;28;20032;-81
2023/12/07 12:31:24;;;;;;;2.08;0.95;;;;;;;16.40;98.64;101776.78;10441972;28;20052;-81
2023/12/07 12:36:28;;;;;;;0.55;0.55;;;;;;;15.12;100.00;101777.88;10437076;28;20045;-81
2023/12/07 12:41:32;;;;;;;1.95;1.13;;;;;;;16.75;98.49;101765.16;10453410;28;20688;-81
2023/12/07 12:46:34;;;;;;;0.95;0.93;;;;;;;15.53;99.90;101766.56;10414820;28;20041;-81
2023/12/07 12:51:38;;;;;;;8.32;2.90;;;;;;;17.27;97.08;101749.34;10456387;28;20045;-81
2023/12/07 12:56:40;;;;;;;0.80;0.80;;;;;;;17.18;96.56;101749.22;10424096;28;20144;-81
2023/12/07 13:01:43;;;;;;;2.28;2.13;;;;;;;17.96;96.12;101735.28;10458223;28;20043;-81
2023/12/07 13:06:45;;;;;;;5.70;2.67;;;;;;;17.24;96.52;101728.47;10422500;28;20037;-82
2023/12/07 13:11:48;;;;;;;0.73;0.73;;;;;;;16.93;97.73;101733.31;10430923;28;20136;-81
2023/12/07 13:16:52;;;;;;;3.83;2.55;;;;;;;15.24;100.00;101727.94;10430088;28;20048;-81
2023/12/07 13:21:54;;;;;;;0.52;0.52;;;;;;;17.33;98.94;101718.16;10440899;28;20064;-81
2023/12/07 13:26:58;;;;;;;3.50;2.63;;;;;;;16.44;98.19;101729.16;10427609;28;20046;-81
2023/12/07 13:32:00;;;;;;;2.65;2.42;;;;;;;16.69;97.90;101715.59;10421828;28;20040;-81
2023/12/07 13:37:05;;;;;;;5.38;1.63;;;;;;;17.55;98.08;101714.06;10443659;28;20033;-81
2023/12/07 13:42:08;;;;;;;2.38;2.17;;;;;;;17.81;96.38;101694.31;10425233;28;20057;-81
2023/12/07 13:47:11;;;;;;;2.33;2.13;;;;;;;17.88;96.76;101701.31;10457548;28;20045;-81
2023/12/07 13:52:16;;;;;;;2.75;1.55;;;;;;;18.32;95.48;101681.66;10427554;28;20048;-81
2023/12/07 13:57:19;;;;;;;2.15;0.88;;;;;;;16.00;98.50;101685.13;10458678;28;20048;-80
2023/12/07 14:02:21;;;;;;;1.02;0.95;;;;;;;16.59;97.29;101654.78;10448316;28;20098;-80
2023/12/07 14:07:23;;;;;;;0.75;0.75;;;;;;;17.18;95.87;101645.06;10429746;28;20033;-80
2023/12/07 14:12:26;;;;;;;0.50;0.50;;;;;;;17.85;95.46;101639.63;10435388;28;20084;-81
2023/12/07 14:17:37;;;;;;;2.03;1.55;;;;;;;17.23;96.69;101628.66;10446538;28;20053;-81
2023/12/07 14:22:41;;;;;;;3.72;1.13;;;;;;;18.69;93.21;101617.50;10445698;28;20173;-81
2023/12/07 14:27:43;;;;;;;2.13;1.35;;;;;;;18.41;92.87;101608.66;10444863;28;20052;-81
2023/12/07 14:32:51;;;;;;;1.75;0.90;;;;;;;17.69;93.66;101616.91;10449209;28;20175;-81
2023/12/07 14:37:53;;;;;;;0.35;0.35;;;;;;;18.23;92.55;101605.13;10432193;28;20036;-81
2023/12/07 14:42:55;;;;;;;0.30;0.30;;;;;;;17.58;92.33;101596.81;10444285;28;20048;-80
2023/12/07 14:47:57;;;;;;;0.22;0.22;;;;;;;17.69;91.65;101586.47;10424174;28;20036;-81
2023/12/07 14:53:00;;;;;;;0.55;0.52;;;;;;;17.90;91.65;101561.44;10442768;28;20068;-80
2023/12/07 14:58:01;;;;;;;0.38;0.38;;;;;;;17.63;92.42;101555.19;10431177;28;20124;-81
2023/12/07 15:03:03;;;;;;;2.92;2.05;;;;;;;18.16;90.88;101555.53;10435778;28;20075;-82
2023/12/07 15:08:05;;;;;;;0.85;0.50;;;;;;;18.47;90.25;101550.44;10437721;28;20131;-80
2023/12/07 15:13:07;;;;;;;0.65;0.52;;;;;;;18.39;89.98;101556.50;10460503;28;20177;-81
2023/12/07 15:18:10;;;;;;;0.60;0.60;;;;;;;18.33;91.10;101558.19;10447691;28;20049;-81
2023/12/07 15:23:12;;;;;;;1.85;1.00;;;;;;;17.85;92.40;101555.31;10454892;28;20051;-81
2023/12/07 15:28:14;;;;;;;1.40;1.02;;;;;;;17.97;90.23;101547.63;10445018;28;20519;-80
2023/12/07 15:33:17;;;;;;;1.95;1.15;;;;;;;18.63;88.74;101549.63;10465598;28;20090;-81
2023/12/07 15:38:19;;;;;;;0.73;0.73;;;;;;;17.56;90.38;101548.19;10445223;28;20044;-81
2023/12/07 15:43:21;;;;;;;0.50;0.50;;;;;;;17.58;90.29;101549.06;10460241;28;20049;-81
2023/12/07 15:48:23;;;;;;;0.20;0.20;;;;;;;18.06;88.33;101538.97;10455373;28;20068;-81
2023/12/07 15:53:25;;;;;;;0.93;0.90;;;;;;;18.38;88.09;101536.50;10446874;28;20036;-81
2023/12/07 15:58:30;;;;;;;0.03;0.03;;;;;;;18.02;88.81;101538.06;10445981;28;20047;-81
2023/12/07 16:03:32;;;;;;;0.80;0.77;;;;;;;17.92;87.82;101520.59;10452018;28;20037;-81
2023/12/07 16:08:36;;;;;;;0.40;0.28;;;;;;;16.87;88.91;101517.19;10437884;28;20045;-81
2023/12/07 16:13:37;;;;;;;2.70;1.50;;;;;;;17.52;89.39;101509.97;10436570;28;20037;-81
2023/12/07 16:18:39;;;;;;;0.25;0.25;;;;;;;17.56;88.30;101485.66;10453690;28;20054;-81
2023/12/07 16:23:41;;;;;;;0.88;0.60;;;;;;;17.87;87.63;101476.25;10442892;28;20067;-81
2023/12/07 16:28:43;;;;;;;1.88;0.85;;;;;;;17.67;88.22;101467.47;10424783;28;20076;-81
2023/12/07 16:33:45;;;;;;;2.53;0.30;;;;;;;17.35;88.26;101452.53;10446243;28;20046;-81
2023/12/07 16:38:46;;;;;;;0.35;0.32;;;;;;;17.54;88.62;101449.19;10459736;28;20072;-81
2023/12/07 16:43:48;;;;;;;1.45;1.00;;;;;;;16.13;92.70;101441.88;10463616;28;20049;-81
2023/12/07 16:48:50;;;;;;;0.40;0.40;;;;;;;16.45;92.77;101436.16;10431507;28;20099;-81
2023/12/07 16:53:52;;;;;;;1.90;1.40;;;;;;;17.04;90.84;101434.09;10454365;28;20144;-81
2023/12/07 16:58:54;;;;;;;0.00;0.00;;;;;;;15.80;92.10;101428.47;10428347;28;20048;-80
2023/12/07 17:03:56;;;;;;;1.50;1.10;;;;;;;16.34;90.59;101430.84;10441013;28;20068;-81
2023/12/07 17:08:58;;;;;;;1.85;0.68;;;;;;;15.62;90.57;101423.91;10440169;28;20040;-81
2023/12/07 17:14:14;;;;;;;1.80;1.23;;;;;;;13.95;94.74;101416.78;10433263;28;20052;-80
2023/12/07 17:19:16;;;;;;;0.30;0.30;;;;;;;14.70;95.76;101420.78;10467061;28;20040;-80
2023/12/07 17:24:19;;;;;;;0.10;0.10;;;;;;;13.73;95.27;101415.44;10460659;28;20069;-80
2023/12/07 17:29:22;;;;;;;0.13;0.13;;;;;;;14.19;93.59;101427.59;10455746;28;20047;-80
2023/12/07 17:34:26;;;;;;;0.82;0.35;;;;;;;15.21;92.66;101427.66;10448246;28;20059;-81
2023/12/07 17:39:28;;;;;;;2.55;0.65;;;;;;;14.57;93.36;101425.69;10455180;28;20181;-81
2023/12/07 17:44:30;;;;;;;0.32;0.32;;;;;;;15.64;91.50;101421.31;10458627;28;20041;-81
2023/12/07 17:49:32;;;;;;;0.38;0.30;;;;;;;14.89;92.42;101414.19;10460107;28;20037;-81
2023/12/07 17:54:34;;;;;;;2.90;1.00;;;;;;;14.39;92.50;101413.28;10441111;28;20052;-80
2023/12/07 17:59:37;;;;;;;2.33;1.63;;;;;;;15.11;91.71;101399.81;10442622;28;20576;-81
2023/12/07 18:04:39;;;;;;;0.63;0.63;;;;;;;14.71;93.17;101384.50;10422190;28;20075;-81
2023/12/07 18:09:41;;;;;;;1.30;0.80;;;;;;;14.46;92.44;101377.97;10426736;28;20064;-81
2023/12/07 18:14:43;;;;;;;0.10;0.10;;;;;;;15.22;91.51;101361.91;10446529;28;20041;-80
2023/12/07 18:19:45;;;;;;;0.65;0.60;;;;;;;15.79;91.01;101353.97;10421991;28;20048;-81
2023/12/07 18:24:47;;;;;;;0.15;0.15;;;;;;;14.72;91.69;101369.78;10429013;28;20078;-81
2023/12/07 18:29:50;;;;;;;1.30;0.57;;;;;;;15.88;90.85;101344.56;10435346;28;20618;-81
2023/12/07 18:34:52;;;;;;;0.35;0.35;;;;;;;14.56;92.37;101361.72;10435566;28;20045;-80
2023/12/07 18:39:54;;;;;;;0.82;0.82;;;;;;;13.47;91.97;101364.00;10435766;28;20087;-80
2023/12/07 18:44:56;;;;;;;0.30;0.30;;;;;;;13.79;93.38;101352.56;10434802;28;20045;-80
2023/12/07 18:49:58;;;;;;;0.35;0.10;;;;;;;14.06;91.36;101361.69;10408576;28;20045;-80
2023/12/07 18:54:59;;;;;;;0.32;0.32;;;;;;;13.67;93.05;101357.47;10459354;28;20399;-80
2023/12/07 19:00:01;;;;;;;0.00;0.00;;;;;;;13.43;92.66;101332.84;10438036;28;20591;-80
2023/12/07 19:05:03;;;;;;;0.00;0.00;;;;;;;13.81;92.41;101335.34;10438341;28;20047;-80
2023/12/07 19:10:06;;;;;;;0.08;0.08;;;;;;;13.78;93.08;101324.91;10425543;28;20045;-80
2023/12/07 19:15:08;;;;;;;8.43;1.35;;;;;;;13.74;93.15;101317.91;10432310;28;20094;-80
2023/12/07 19:20:10;;;;;;;3.53;1.63;;;;;;;14.36;92.29;101316.44;10454125;28;20041;-79
2023/12/07 19:25:12;;;;;;;0.10;0.10;;;;;;;13.91;92.84;101310.50;10420891;28;20065;-80
2023/12/07 19:30:14;;;;;;;0.00;0.00;;;;;;;13.26;92.04;101302.28;10439086;28;20065;-80
2023/12/07 19:35:16;;;;;;;0.00;0.00;;;;;;;14.30;92.26;101299.06;10435079;28;20056;-80
2023/12/07 19:40:18;;;;;;;0.32;0.32;;;;;;;14.14;92.92;101287.56;10445333;28;20045;-80
2023/12/07 19:45:19;;;;;;;0.65;0.43;;;;;;;13.48;91.92;101289.81;10455883;28;20068;-79
2023/12/07 19:50:21;;;;;;;0.50;0.50;;;;;;;13.94;92.87;101275.16;10442714;28;20060;-80
2023/12/07 19:55:23;;;;;;;0.35;0.35;;;;;;;14.38;91.94;101265.50;10443877;28;20136;-80
2023/12/07 20:00:25;;;;;;;0.15;0.15;;;;;;;13.80;91.33;101251.59;10449717;28;20037;-79
2023/12/07 20:05:27;;;;;;;0.77;0.55;;;;;;;13.93;90.15;101237.13;10446216;28;20076;-80
2023/12/07 20:10:30;;;;;;;0.40;0.40;;;;;;;14.38;90.67;101209.34;10426250;28;20045;-80
2023/12/07 20:15:32;;;;;;;1.08;0.60;;;;;;;13.93;91.31;101206.06;10448136;28;20049;-79
2023/12/07 20:20:33;;;;;;;0.10;0.10;;;;;;;14.18;90.52;101195.22;10435489;28;20051;-79
2023/12/07 20:25:35;;;;;;;0.13;0.13;;;;;;;14.30;90.34;101195.41;10438327;28;20059;-79
2023/12/07 20:30:37;;;;;;;0.03;0.03;;;;;;;14.58;90.19;101181.13;10438073;28;20091;-79
2023/12/07 20:35:39;;;;;;;0.43;0.43;;;;;;;13.99;91.42;101165.56;10431229;28;20486;-79
2023/12/07 20:40:53;;;;;;;0.80;0.68;;;;;;;13.82;89.46;101166.13;10441151;28;20053;-79
2023/12/07 20:45:55;;;;;;;0.17;0.17;;;;;;;13.60;90.58;101165.78;10444436;28;20545;-78
2023/12/07 20:50:57;;;;;;;0.30;0.15;;;;;;;13.84;89.06;101164.47;10427248;28;20139;-79
2023/12/07 20:55:59;;;;;;;0.32;0.13;;;;;;;13.88;89.76;101135.19;10440405;28;20090;-79
2023/12/07 21:01:01;;;;;;;0.57;0.57;;;;;;;14.07;89.26;101130.28;10441341;28;20045;-79
2023/12/07 21:06:03;;;;;;;0.63;0.45;;;;;;;14.49;88.69;101134.31;10421320;28;20048;-81
2023/12/07 21:11:05;;;;;;;0.00;0.00;;;;;;;13.94;88.85;101130.09;10444899;28;20095;-79
2023/12/07 21:16:07;;;;;;;0.05;0.05;;;;;;;15.29;87.07;101107.63;10440176;28;20135;-80
2023/12/07 21:21:08;;;;;;;0.17;0.17;;;;;;;13.63;89.24;101095.94;10443103;28;20223;-79
2023/12/07 21:26:12;;;;;;;0.15;0.15;;;;;;;13.75;87.81;101082.31;10430332;28;20053;-80
2023/12/07 21:31:13;;;;;;;1.30;0.63;;;;;;;14.12;88.83;101072.50;10446447;28;20051;-80
2023/12/07 21:36:18;;;;;;;0.60;0.55;;;;;;;14.30;87.72;101072.72;10437164;28;20048;-80
2023/12/07 21:41:19;;;;;;;0.45;0.45;;;;;;;14.96;87.00;101051.91;10451566;28;20047;-79
2023/12/07 21:46:21;;;;;;;0.00;0.00;;;;;;;14.52;88.33;101051.41;10451169;28;20048;-79
2023/12/07 21:51:23;;;;;;;0.08;0.05;;;;;;;14.95;87.75;101038.09;10431008;28;20407;-79
2023/12/07 21:56:25;;;;;;;0.17;0.17;;;;;;;14.03;88.80;101030.94;10443339;28;20407;-79
2023/12/07 22:01:27;;;;;;;0.03;0.03;;;;;;;14.73;88.35;101027.50;10441898;28;20048;-79
2023/12/07 22:06:29;;;;;;;0.20;0.20;;;;;;;14.64;88.90;101026.47;10447932;28;20136;-80
2023/12/07 22:11:30;;;;;;;0.10;0.10;;;;;;;14.26;88.38;101013.06;10457506;28;20048;-80
2023/12/07 22:16:39;;;;;;;1.20;0.70;;;;;;;14.55;86.67;100994.44;10447041;28;20055;-79
2023/12/07 22:21:42;;;;;;;0.10;0.10;;;;;;;14.38;88.31;100985.59;10442789;28;20045;-80
2023/12/07 22:26:43;;;;;;;0.03;0.03;;;;;;;13.84;88.31;100970.22;10422929;28;20411;-79
2023/12/07 22:31:45;;;;;;;3.20;0.63;;;;;;;13.94;89.47;100948.78;10442096;28;20076;-79
2023/12/07 22:36:47;;;;;;;0.08;0.08;;;;;;;14.85;88.02;100928.19;10447234;28;20131;-80
2023/12/07 22:41:49;;;;;;;0.32;0.17;;;;;;;15.19;86.66;100936.22;10451829;28;20078;-79
2023/12/07 22:46:51;;;;;;;0.00;0.00;;;;;;;15.85;86.69;100922.78;10439681;28;20131;-79
2023/12/07 22:51:53;;;;;;;0.32;0.32;;;;;;;14.89;87.81;100927.34;10442424;28;20106;-79
2023/12/07 22:56:55;;;;;;;1.23;1.13;;;;;;;13.94;87.87;100922.91;10427021;28;20128;-79
2023/12/07 23:01:57;;;;;;;0.00;0.00;;;;;;;13.87;87.55;100926.25;10467571;28;20467;-79
2023/12/07 23:06:59;;;;;;;0.00;0.00;;;;;;;15.40;86.01;100929.44;10444231;28;20048;-79
2023/12/07 23:12:01;;;;;;;0.10;0.10;;;;;;;14.59;87.52;100928.78;10432057;28;20048;-80